Harvest, Alabama
Current Conditions -  °F | °C
As of 8:35 PM on Sunday 25 Jan 2015 (Local Time) from KMDQ Reporting Station
Drizzle Drizzle  
Wind Chill: 40°   Ceiling: 6000
Heat Index: 45°   Visibility: 10mi
Dew Point: 37°   Wind: 8mph
Humidity: 76%   Direction: 280°W
Pressure: 29.75"   Gusts: NA
Location:  34.86°N, 86.75°W
Report Text: KMDQ 260235Z AUTO 28007KT 10SM -DZ SCT028 SCT040 BKN060 07/03 A2975 RMK AO2
Loading
Personal Weather Stations






























Interactive Weather Map New forecast layout! Learn more

10-Day Weather Forecast

Advertisements
Track Severe Weather on mobile